Terminal Aerodrome Forecast
Issued by NWS Chicago, IL

Home | Current Version | Previous Version | Text Only | Print | Product List | Glossary On
Versions: 1 2 3 4 5 6 7 8 9 10 11 12 13 14 15 16 17 18 19 20 21 22 23 24 25 26 27 28
000
FTUS43 KLOT 271729
TAFRFD
TAF
KRFD 271729Z 2718/2818 18012KT P6SM FEW025
     FM280100 13008KT P6SM FEW035 BKN100
     FM280600 16010KT 4SM -SHRA SCT015 BKN025 PROB30 2807/2810 2SM
      -TSRA SCT009CB OVC015
     FM281000 17010KT 4SM -RADZ BR OVC006
     FM281500 19012G17KT P6SM SCT008 BKN015=

USA.gov is the U.S. government's official web portal to all federal, state and local government web resources and services.